Terminal Aerodrome Forecast
Issued by NWS

Home | Current Version | Previous Version | Text Only | Print | Product List | Glossary Off
Versions: 1 2 3 4 5 6 7 8 9 10 11 12 13 14 15 16 17

000
FTUS43 KMPX 271120
TAFAXN
TAF
KAXN 271120Z 2712/2812 VRB03KT P6SM SCT250
     FM271400 22008KT P6SM FEW050 BKN200
     FM280100 19010KT P6SM VCTS SCT050CB BKN120
      TEMPO 2802/2806 2SM TSRA OVC050CB
     FM280600 21008KT P6SM BKN050=

USA.gov is the U.S. government's official web portal to all federal, state and local government web resources and services.